ENAL

Ålesund Airport

Ålesund, Norway
METAR ENAL 222020Z 18012KT 9999 -RA SCT022 BKN027 06/04 Q0995
Observed Flight Rules
Oct-22 @ 20:20 UTC (30 minutes ago) Marginal Visual Flight Rules
Wind Visibility Clouds Conditions
180° at 12 knots 10,000+ meters
  • Scattered at 2,200' AGL
  • Broken at 2,700' AGL
  • Light Rain
Temperatures Readings
Current 6°C / 43°F
Dewpoint 4°C / 39°F
Humidity 87%
Altimeter 29.38" Hg
Pressure 995 hPa
Elevation 22
METAR ENAL 222020Z 18012KT 9999 -RA SCT022 BKN027 06/04 Q0995
Observed Flight Rules
Oct-22 @ 20:20 UTC
(30 minutes ago)
MVFR
Wind Visibility
180° at 12 knots 10,000+ meters
Clouds
  • Scattered at 2,200' AGL
  • Broken at 2,700' AGL
Conditions
  • Light Rain
Temperature Dewpoint
6°C / 43°F 4°C / 39°F
Humidity Altimeter Pressure
87% 29.38" Hg 995 hPa